createdAt,value
2024-01-16T00:04:32.653Z,4.22
2024-01-16T00:14:53.782Z,3.28
2024-01-16T00:25:15.011Z,3.47
2024-01-16T00:35:35.958Z,3.33
2024-01-16T00:45:57.141Z,4.70
2024-01-16T00:56:18.024Z,2.22
2024-01-16T01:06:38.850Z,2.78
2024-01-16T01:16:59.502Z,3.80
2024-01-16T01:27:20.723Z,2.03
2024-01-16T01:37:41.493Z,2.47
2024-01-16T01:48:07.208Z,2.03
2024-01-16T01:58:28.929Z,4.07
2024-01-16T02:08:50.411Z,3.17
2024-01-16T02:19:11.569Z,2.65
2024-01-16T02:29:32.858Z,2.28
2024-01-16T02:39:53.850Z,3.50
2024-01-16T02:50:14.955Z,0.88
2024-01-16T03:00:35.677Z,1.42
2024-01-16T03:10:56.474Z,1.60
2024-01-16T03:21:17.276Z,1.63
2024-01-16T03:31:38.205Z,1.83
2024-01-16T03:41:59.316Z,7.68
2024-01-16T03:52:20.206Z,1.20
2024-01-16T04:02:41.203Z,2.92
2024-01-16T04:13:03.181Z,4.13
2024-01-16T04:23:24.214Z,2.00
2024-01-16T04:33:45.248Z,1.65
2024-01-16T04:44:06.590Z,4.22
2024-01-16T04:54:27.273Z,2.92
2024-01-16T05:04:50.669Z,3.72
2024-01-16T05:15:15.645Z,2.55
2024-01-16T05:25:36.708Z,5.65
2024-01-16T05:36:00.636Z,1.50
2024-01-16T05:46:21.412Z,3.25
2024-01-16T05:56:42.743Z,4.18
2024-01-16T06:07:07.155Z,4.72
2024-01-16T06:17:28.247Z,2.38
2024-01-16T06:27:49.071Z,4.45
2024-01-16T06:38:09.944Z,1.58
2024-01-16T06:48:31.349Z,2.53
2024-01-16T06:58:52.251Z,2.08
2024-01-16T07:09:13.237Z,1.65
2024-01-16T07:19:34.211Z,1.40
2024-01-16T07:29:54.963Z,2.08
2024-01-16T07:40:18.146Z,1.52
2024-01-16T07:50:39.031Z,2.13
2024-01-16T08:00:59.908Z,2.78
2024-01-16T08:11:20.851Z,2.22
2024-01-16T08:21:41.659Z,3.58
2024-01-16T08:32:02.767Z,2.67
2024-01-16T08:42:23.931Z,3.33
2024-01-16T08:52:44.660Z,2.80
2024-01-16T09:03:05.738Z,2.25
2024-01-16T09:13:26.633Z,2.88
2024-01-16T09:23:47.394Z,6.85
2024-01-16T09:34:09.964Z,6.13
2024-01-16T09:44:31.379Z,3.45
2024-01-16T09:54:52.295Z,3.95
2024-01-16T10:05:14.009Z,3.55
2024-01-16T10:15:36.690Z,2.58
2024-01-16T10:26:08.088Z,4.25
2024-01-16T10:36:29.408Z,2.55
2024-01-16T10:46:50.797Z,2.40
2024-01-16T10:57:14.600Z,1.77
2024-01-16T11:07:37.800Z,4.70
2024-01-16T11:18:01.228Z,4.78
2024-01-16T11:28:28.800Z,2.92
2024-01-16T11:38:58.071Z,4.32
2024-01-16T11:49:22.050Z,8.07
2024-01-16T12:00:15.594Z,2.67
2024-01-16T12:10:49.077Z,4.97
2024-01-16T12:21:14.707Z,1.95
2024-01-16T12:31:36.134Z,5.10
2024-01-16T12:41:57.321Z,5.38
2024-01-16T12:52:22.543Z,6.00
2024-01-16T13:02:50.765Z,3.42
2024-01-16T13:13:16.690Z,5.20
2024-01-16T13:23:37.954Z,7.85
2024-01-16T13:33:59.056Z,3.83
2024-01-16T13:44:20.162Z,3.55
2024-01-16T13:54:40.954Z,2.65
2024-01-16T14:05:02.056Z,3.70
2024-01-16T14:15:26.692Z,3.38
2024-01-16T14:25:47.741Z,2.60
2024-01-16T14:36:08.688Z,2.20
2024-01-16T14:46:29.929Z,2.33
2024-01-16T14:56:50.958Z,3.17
2024-01-16T15:07:11.734Z,2.17
2024-01-16T15:17:33.069Z,7.22
2024-01-16T15:27:57.215Z,5.13
2024-01-16T15:38:18.099Z,1.65
2024-01-16T15:48:41.206Z,5.78
2024-01-16T15:59:02.163Z,6.55
2024-01-16T16:09:24.477Z,5.40
2024-01-16T16:19:46.813Z,4.22
2024-01-16T16:30:08.812Z,7.40
2024-01-16T16:40:29.959Z,8.48
2024-01-16T16:50:50.776Z,7.50
2024-01-16T17:01:13.880Z,10.13
2024-01-16T17:11:35.020Z,10.00
2024-01-16T17:21:55.836Z,8.07
2024-01-16T17:32:16.697Z,8.65
2024-01-16T17:42:37.548Z,11.38
2024-01-16T17:53:01.403Z,8.27
2024-01-16T18:03:32.654Z,9.88
2024-01-16T18:14:02.977Z,7.60
2024-01-16T18:24:24.119Z,9.50
2024-01-16T18:34:45.116Z,8.45
2024-01-16T18:45:06.818Z,7.78
2024-01-16T18:55:27.939Z,8.80
2024-01-16T19:05:48.973Z,7.15
2024-01-16T19:16:13.228Z,11.55
2024-01-16T19:26:35.190Z,10.63
2024-01-16T19:36:56.784Z,6.22
2024-01-16T19:47:18.197Z,9.50
2024-01-16T19:57:39.946Z,12.98
2024-01-16T20:08:01.021Z,9.85
2024-01-16T20:18:21.814Z,17.95
2024-01-16T20:28:43.166Z,16.85
2024-01-16T20:39:04.261Z,18.60
2024-01-16T20:49:25.595Z,15.13
2024-01-16T20:59:46.768Z,10.82
2024-01-16T21:10:08.904Z,7.60
2024-01-16T21:20:29.823Z,13.93
2024-01-16T21:30:52.847Z,9.80
2024-01-16T21:41:14.096Z,9.65
2024-01-16T21:51:34.931Z,21.77
2024-01-16T22:01:55.773Z,30.13
2024-01-16T22:12:16.670Z,25.00
2024-01-16T22:22:41.704Z,10.25
2024-01-16T22:33:05.371Z,16.20
2024-01-16T22:43:26.407Z,15.98
2024-01-16T22:53:47.350Z,13.80
2024-01-16T23:04:08.409Z,12.98
2024-01-16T23:14:29.267Z,13.85
2024-01-16T23:24:49.873Z,12.38
2024-01-16T23:35:10.859Z,11.45
2024-01-16T23:45:33.971Z,15.05
2024-01-16T23:55:55.492Z,13.77
